createdAt,value
2018-05-16T00:02:21.809Z,18.70
2018-05-16T00:04:50.039Z,18.70
2018-05-16T00:07:17.550Z,18.60
2018-05-16T00:09:45.786Z,18.60
2018-05-16T00:12:13.283Z,18.60
2018-05-16T00:14:40.775Z,18.70
2018-05-16T00:17:08.274Z,18.70
2018-05-16T00:19:36.781Z,18.60
2018-05-16T00:22:05.054Z,18.50
2018-05-16T00:24:33.303Z,18.40
2018-05-16T00:27:00.893Z,18.40
2018-05-16T00:29:28.379Z,18.40
2018-05-16T00:31:55.873Z,18.30
2018-05-16T00:34:23.357Z,18.40
2018-05-16T00:36:51.600Z,18.40
2018-05-16T00:39:19.093Z,18.40
2018-05-16T00:41:46.589Z,18.40
2018-05-16T00:44:14.093Z,18.30
2018-05-16T00:46:41.557Z,18.40
2018-05-16T00:49:09.907Z,18.30
2018-05-16T00:51:37.438Z,18.30
2018-05-16T00:54:04.947Z,18.40
2018-05-16T00:56:33.213Z,18.30
2018-05-16T00:59:00.704Z,18.20
2018-05-16T01:01:28.196Z,18.20
2018-05-16T01:03:55.682Z,18.30
2018-05-16T01:06:23.173Z,18.10
2018-05-16T01:08:51.416Z,18.20
2018-05-16T01:11:19.698Z,18.10
2018-05-16T01:13:47.192Z,18.10
2018-05-16T01:16:14.682Z,18.10
2018-05-16T01:18:42.290Z,18.20
2018-05-16T01:21:10.541Z,18.10
2018-05-16T01:23:38.048Z,18.10
2018-05-16T01:26:05.549Z,18.20
2018-05-16T01:28:33.029Z,18.20
2018-05-16T01:31:01.292Z,18.20
2018-05-16T01:33:28.774Z,18.10
2018-05-16T01:35:57.011Z,18.20
2018-05-16T01:38:24.507Z,18.10
2018-05-16T01:40:52.006Z,18.20
2018-05-16T01:43:19.502Z,18.30
2018-05-16T01:45:47.004Z,18.30
2018-05-16T01:48:14.488Z,18.20
2018-05-16T01:50:42.077Z,18.30
2018-05-16T01:53:09.566Z,18.30
2018-05-16T01:55:37.052Z,18.30
2018-05-16T01:58:04.522Z,18.20
2018-05-16T02:00:32.018Z,18.20
2018-05-16T02:03:00.263Z,17.90
2018-05-16T02:05:27.771Z,17.90
2018-05-16T02:07:55.233Z,17.90
2018-05-16T02:10:23.176Z,17.80
2018-05-16T02:12:51.419Z,17.60
2018-05-16T02:15:18.931Z,17.60
2018-05-16T02:17:46.422Z,17.60
2018-05-16T02:20:13.928Z,17.50
2018-05-16T02:22:42.179Z,17.30
2018-05-16T02:25:09.659Z,17.30
2018-05-16T02:27:37.910Z,17.40
2018-05-16T02:30:05.383Z,17.40
2018-05-16T02:32:32.871Z,17.50
2018-05-16T02:35:00.360Z,17.50
2018-05-16T02:37:27.974Z,17.20
2018-05-16T02:39:55.419Z,17.00
2018-05-16T02:42:23.686Z,16.90
2018-05-16T02:44:51.193Z,16.90
2018-05-16T02:47:18.672Z,16.90
2018-05-16T02:49:46.151Z,17.00
2018-05-16T02:52:13.651Z,16.90
2018-05-16T02:54:41.119Z,16.90
2018-05-16T02:57:08.602Z,16.80
2018-05-16T02:59:36.094Z,16.80
2018-05-16T03:02:03.568Z,16.70
2018-05-16T03:04:31.035Z,16.80
2018-05-16T03:06:58.517Z,16.90
2018-05-16T03:09:26.043Z,16.80
2018-05-16T03:11:54.289Z,16.80
2018-05-16T03:14:21.868Z,16.80
2018-05-16T03:16:49.353Z,16.90
2018-05-16T03:19:17.056Z,17.00
2018-05-16T03:21:44.722Z,16.80
2018-05-16T03:24:12.226Z,16.70
2018-05-16T03:26:39.776Z,16.70
2018-05-16T03:29:08.017Z,17.00
2018-05-16T03:31:35.494Z,17.00
2018-05-16T03:34:03.748Z,17.10
2018-05-16T03:36:31.392Z,17.10
2018-05-16T03:38:58.939Z,17.10
2018-05-16T03:41:26.421Z,17.10
2018-05-16T03:43:53.926Z,17.10
2018-05-16T03:46:21.445Z,17.10
2018-05-16T03:48:48.922Z,17.10
2018-05-16T03:51:17.193Z,17.00
2018-05-16T03:53:44.801Z,17.00
2018-05-16T03:56:12.284Z,16.90
2018-05-16T03:58:51.690Z,16.80
2018-05-16T04:01:30.981Z,16.80
2018-05-16T04:04:23.031Z,16.70
2018-05-16T04:06:50.624Z,16.70
2018-05-16T04:09:18.126Z,16.70
2018-05-16T04:11:45.598Z,16.70
2018-05-16T04:14:13.840Z,16.50
2018-05-16T04:16:41.485Z,16.50
2018-05-16T04:19:09.030Z,16.50
2018-05-16T04:21:36.522Z,16.50
2018-05-16T04:24:04.004Z,16.50
2018-05-16T04:26:32.270Z,16.50
2018-05-16T04:29:00.546Z,16.50
2018-05-16T04:31:28.996Z,16.60
2018-05-16T04:33:56.651Z,16.60
2018-05-16T04:36:24.156Z,16.70
2018-05-16T04:38:52.429Z,16.80
2018-05-16T04:41:20.688Z,16.80
2018-05-16T04:43:48.175Z,16.80
2018-05-16T04:46:16.431Z,16.80
2018-05-16T04:48:44.654Z,16.80
2018-05-16T04:51:12.113Z,16.80
2018-05-16T04:53:39.588Z,16.90
2018-05-16T04:56:07.068Z,16.90
2018-05-16T04:58:34.584Z,16.90
2018-05-16T05:01:02.113Z,16.90
2018-05-16T05:03:31.056Z,16.50
2018-05-16T05:05:58.743Z,16.50
2018-05-16T05:08:26.217Z,16.40
2018-05-16T05:10:54.465Z,16.50
2018-05-16T05:13:21.920Z,16.50
2018-05-16T05:15:49.397Z,16.60
2018-05-16T05:18:17.680Z,16.80
2018-05-16T05:20:45.155Z,16.80
2018-05-16T05:23:12.625Z,16.80
2018-05-16T05:25:40.185Z,16.80
2018-05-16T05:28:07.647Z,16.70
2018-05-16T05:30:35.105Z,16.80
2018-05-16T05:33:02.581Z,16.70
2018-05-16T05:35:30.060Z,16.80
2018-05-16T05:37:57.520Z,16.80
2018-05-16T05:40:25.153Z,17.00
2018-05-16T05:42:52.639Z,17.10
2018-05-16T05:45:20.176Z,17.30
2018-05-16T05:47:47.662Z,17.30
2018-05-16T05:50:15.146Z,17.40
2018-05-16T05:52:42.618Z,17.30
2018-05-16T05:55:10.194Z,17.40
2018-05-16T05:57:37.673Z,17.40
2018-05-16T06:00:05.946Z,17.40
2018-05-16T06:02:33.560Z,17.30
2018-05-16T06:05:01.053Z,17.30
2018-05-16T06:07:28.874Z,17.40
2018-05-16T06:09:56.346Z,17.40
2018-05-16T06:12:23.916Z,17.50
2018-05-16T06:14:51.448Z,17.50
2018-05-16T06:17:19.704Z,17.50
2018-05-16T06:19:48.020Z,17.60
2018-05-16T06:22:15.423Z,17.60
2018-05-16T06:24:42.887Z,17.70
2018-05-16T06:27:10.506Z,17.80
2018-05-16T06:29:37.877Z,17.90
2018-05-16T06:32:05.359Z,17.90
2018-05-16T06:34:33.610Z,18.00
2018-05-16T06:37:01.080Z,18.00
2018-05-16T06:39:28.591Z,18.00
2018-05-16T06:41:56.064Z,18.10
2018-05-16T06:44:23.560Z,18.10
2018-05-16T06:46:51.039Z,18.10
2018-05-16T06:49:19.305Z,18.10
2018-05-16T06:51:47.552Z,18.10
2018-05-16T06:54:15.055Z,18.10
2018-05-16T06:56:43.299Z,18.20
2018-05-16T06:59:10.812Z,18.20
2018-05-16T07:01:38.425Z,18.20
2018-05-16T07:04:07.439Z,18.50
2018-05-16T07:06:36.404Z,18.50
2018-05-16T07:09:03.921Z,18.50
2018-05-16T07:11:31.395Z,18.70
2018-05-16T07:13:58.904Z,18.70
2018-05-16T07:16:27.381Z,18.80
2018-05-16T07:18:55.645Z,18.80
2018-05-16T07:21:23.924Z,18.80
2018-05-16T07:23:51.395Z,18.80
2018-05-16T07:26:19.662Z,19.00
2018-05-16T07:28:47.921Z,19.20
2018-05-16T07:31:15.404Z,19.10
2018-05-16T07:33:43.637Z,19.40
2018-05-16T07:36:11.127Z,19.40
2018-05-16T07:38:39.373Z,19.50
2018-05-16T07:41:07.139Z,19.50
2018-05-16T07:43:34.520Z,19.50
2018-05-16T07:46:02.787Z,19.50
2018-05-16T07:48:31.765Z,19.60
2018-05-16T07:50:59.251Z,19.60
2018-05-16T07:53:27.532Z,20.00
2018-05-16T07:55:55.813Z,20.10
2018-05-16T07:58:24.028Z,20.10
2018-05-16T08:00:51.524Z,20.10
2018-05-16T08:03:19.022Z,20.30
2018-05-16T08:05:46.475Z,20.30
2018-05-16T08:08:13.952Z,20.40
2018-05-16T08:10:41.453Z,20.50
2018-05-16T08:13:08.967Z,20.60
2018-05-16T08:15:36.444Z,20.60
2018-05-16T08:18:03.924Z,20.70
2018-05-16T08:20:32.236Z,20.70
2018-05-16T08:22:59.711Z,20.70
2018-05-16T08:25:27.201Z,20.60
2018-05-16T08:27:54.696Z,20.70
2018-05-16T08:30:22.206Z,20.70
2018-05-16T08:32:49.685Z,20.80
2018-05-16T08:35:17.156Z,20.80
2018-05-16T08:37:45.412Z,20.80
2018-05-16T08:40:12.874Z,20.70
2018-05-16T08:42:41.159Z,21.10
2018-05-16T08:45:09.399Z,21.10
2018-05-16T08:47:36.872Z,21.10
2018-05-16T08:50:04.352Z,20.90
2018-05-16T08:52:32.872Z,20.60
2018-05-16T08:55:00.361Z,20.60
2018-05-16T08:57:27.824Z,20.50
2018-05-16T08:59:55.320Z,20.50
2018-05-16T09:02:23.624Z,20.50
2018-05-16T09:04:51.046Z,20.50
2018-05-16T09:07:19.297Z,20.50
2018-05-16T09:09:46.780Z,20.50
2018-05-16T09:12:15.025Z,20.40
2018-05-16T09:14:42.516Z,20.40
2018-05-16T09:17:09.988Z,20.50
2018-05-16T09:19:37.457Z,20.50
2018-05-16T09:22:04.961Z,20.60
2018-05-16T09:24:32.585Z,20.70
2018-05-16T09:27:00.073Z,20.70
2018-05-16T09:29:27.567Z,20.70
2018-05-16T09:31:55.032Z,20.80
2018-05-16T09:34:22.534Z,20.80
2018-05-16T09:36:50.013Z,20.90
2018-05-16T09:39:18.246Z,21.20
2018-05-16T09:41:45.737Z,21.20
2018-05-16T09:44:13.199Z,21.20
2018-05-16T09:46:40.672Z,21.30
2018-05-16T09:49:08.919Z,21.10
2018-05-16T09:51:37.935Z,21.10
2018-05-16T09:54:05.399Z,21.10
2018-05-16T09:56:33.654Z,21.20
2018-05-16T09:59:02.638Z,21.20
2018-05-16T10:01:30.104Z,21.20
2018-05-16T10:03:57.582Z,21.40
2018-05-16T10:06:25.824Z,21.80
2018-05-16T10:08:53.331Z,21.80
2018-05-16T10:11:20.823Z,22.00
2018-05-16T10:13:48.283Z,22.00
2018-05-16T10:16:15.792Z,22.00
2018-05-16T10:18:44.024Z,21.70
2018-05-16T10:21:11.536Z,21.70
2018-05-16T10:23:39.040Z,21.60
2018-05-16T10:26:06.510Z,21.60
2018-05-16T10:28:34.312Z,21.50
2018-05-16T10:31:01.791Z,21.40
2018-05-16T10:33:29.287Z,21.30
2018-05-16T10:35:56.755Z,21.30
2018-05-16T10:38:24.243Z,21.20
2018-05-16T10:40:51.747Z,21.20
2018-05-16T10:43:19.230Z,21.30
2018-05-16T10:45:47.475Z,21.30
2018-05-16T10:48:14.947Z,21.30
2018-05-16T10:50:42.537Z,21.10
2018-05-16T10:53:09.912Z,21.20
2018-05-16T10:55:37.402Z,21.00
2018-05-16T10:58:04.881Z,20.90
2018-05-16T11:00:32.377Z,21.00
2018-05-16T11:02:59.863Z,20.90
2018-05-16T11:05:27.362Z,20.90
2018-05-16T11:07:54.841Z,20.70
2018-05-16T11:10:23.152Z,21.00
2018-05-16T11:12:50.562Z,21.00
2018-05-16T11:15:18.808Z,21.40
2018-05-16T11:17:46.279Z,21.30
2018-05-16T11:20:13.759Z,21.50
2018-05-16T11:22:42.033Z,21.60
2018-05-16T11:25:10.284Z,21.60
2018-05-16T11:27:39.457Z,21.50
2018-05-16T11:30:06.973Z,21.50
2018-05-16T11:32:34.463Z,21.30
2018-05-16T11:35:01.973Z,21.30
2018-05-16T11:37:29.436Z,21.20
2018-05-16T11:39:57.709Z,21.40
2018-05-16T11:42:25.970Z,21.50
2018-05-16T11:44:53.492Z,21.50
2018-05-16T11:47:20.972Z,21.60
2018-05-16T11:49:48.504Z,21.70
2018-05-16T11:52:15.980Z,21.80
2018-05-16T11:54:43.451Z,21.90
2018-05-16T11:57:10.938Z,22.00
2018-05-16T11:59:39.207Z,22.30
2018-05-16T12:02:07.471Z,22.30
2018-05-16T12:04:34.933Z,22.20
2018-05-16T12:07:03.196Z,22.20
2018-05-16T12:09:30.664Z,22.10
2018-05-16T12:11:58.176Z,22.10
2018-05-16T12:14:25.690Z,22.00
2018-05-16T12:16:53.927Z,21.70
2018-05-16T12:19:21.417Z,21.70
2018-05-16T12:21:49.659Z,21.60
2018-05-16T12:24:17.143Z,21.60
2018-05-16T12:26:44.680Z,21.50
2018-05-16T12:29:12.241Z,21.50
2018-05-16T12:31:40.422Z,21.30
2018-05-16T12:34:07.876Z,21.30
2018-05-16T12:36:35.381Z,21.10
2018-05-16T12:39:02.892Z,21.10
2018-05-16T12:41:30.369Z,21.20
2018-05-16T12:43:58.624Z,21.10
2018-05-16T12:46:26.137Z,21.10
2018-05-16T12:48:53.613Z,21.10
2018-05-16T12:51:21.092Z,21.10
2018-05-16T12:53:48.597Z,21.10
2018-05-16T12:56:16.826Z,21.30
2018-05-16T12:58:49.456Z,21.20
2018-05-16T13:01:16.936Z,21.40
2018-05-16T13:03:44.426Z,21.40
2018-05-16T13:06:11.887Z,21.40
2018-05-16T13:08:39.393Z,21.70
2018-05-16T13:11:06.900Z,21.80
2018-05-16T13:13:34.385Z,21.70
2018-05-16T13:16:02.633Z,21.50
2018-05-16T13:18:30.103Z,21.40
2018-05-16T13:20:58.366Z,21.80
2018-05-16T13:23:25.845Z,21.70
2018-05-16T13:25:54.082Z,22.30
2018-05-16T13:28:21.551Z,22.30
2018-05-16T13:30:49.095Z,22.70
2018-05-16T13:33:16.568Z,23.10
2018-05-16T13:35:44.073Z,23.00
2018-05-16T13:38:12.309Z,23.30
2018-05-16T13:40:41.304Z,23.10
2018-05-16T13:43:08.777Z,23.10
2018-05-16T13:45:37.046Z,22.90
2018-05-16T13:48:05.430Z,22.80
2018-05-16T13:50:33.668Z,22.20
2018-05-16T13:53:01.213Z,22.20
2018-05-16T13:55:28.790Z,22.00
2018-05-16T13:57:56.299Z,21.90
2018-05-16T14:00:23.776Z,21.90
2018-05-16T14:02:51.348Z,21.80
2018-05-16T14:05:19.573Z,21.80
2018-05-16T14:07:47.848Z,21.70
2018-05-16T14:10:16.112Z,21.50
2018-05-16T14:12:44.397Z,21.50
2018-05-16T14:15:12.670Z,21.50
2018-05-16T14:17:40.617Z,21.50
2018-05-16T14:20:08.150Z,21.70
2018-05-16T14:22:35.608Z,22.00
2018-05-16T14:25:03.082Z,22.10
2018-05-16T14:27:30.562Z,22.20
2018-05-16T14:29:58.024Z,22.30
2018-05-16T14:32:26.258Z,22.00
2018-05-16T14:34:53.768Z,22.00
2018-05-16T14:37:22.012Z,21.70
2018-05-16T14:39:49.514Z,21.70
2018-05-16T14:42:16.991Z,21.60
2018-05-16T14:44:44.474Z,21.60
2018-05-16T14:47:11.943Z,21.70
2018-05-16T14:49:39.419Z,21.90
2018-05-16T14:52:07.668Z,21.90
2018-05-16T14:54:35.199Z,21.90
2018-05-16T14:57:02.697Z,21.80
2018-05-16T14:59:30.284Z,21.70
2018-05-16T15:01:58.519Z,21.20
2018-05-16T15:04:26.001Z,21.10
2018-05-16T15:06:53.495Z,21.10
2018-05-16T15:09:20.992Z,21.20
2018-05-16T15:11:48.495Z,21.10
2018-05-16T15:14:15.984Z,21.10
2018-05-16T15:16:43.768Z,21.10
2018-05-16T15:19:11.230Z,21.10
2018-05-16T15:21:38.734Z,20.90
2018-05-16T15:24:06.216Z,20.80
2018-05-16T15:26:33.700Z,20.80
2018-05-16T15:29:01.187Z,20.90
2018-05-16T15:31:29.451Z,20.80
2018-05-16T15:33:57.271Z,20.80
2018-05-16T15:36:24.765Z,20.80
2018-05-16T15:38:52.257Z,20.70
2018-05-16T15:41:20.533Z,20.70
2018-05-16T15:43:48.773Z,20.70
2018-05-16T15:46:16.267Z,20.70
2018-05-16T15:48:43.948Z,20.80
2018-05-16T15:51:11.430Z,20.90
2018-05-16T15:53:39.033Z,21.10
2018-05-16T15:56:06.796Z,21.10
2018-05-16T15:58:35.096Z,21.20
2018-05-16T16:01:02.568Z,21.20
2018-05-16T16:03:30.106Z,21.20
2018-05-16T16:05:57.584Z,21.20
2018-05-16T16:08:29.135Z,21.20
2018-05-16T16:10:56.768Z,21.30
2018-05-16T16:13:25.028Z,21.30
2018-05-16T16:15:52.561Z,21.30
2018-05-16T16:18:20.049Z,21.30
2018-05-16T16:20:48.300Z,21.30
2018-05-16T16:23:15.771Z,21.30
2018-05-16T16:25:43.259Z,21.20
2018-05-16T16:28:10.740Z,21.10
2018-05-16T16:30:38.223Z,21.00
2018-05-16T16:33:05.722Z,21.00
2018-05-16T16:35:34.176Z,20.90
2018-05-16T16:38:01.840Z,20.90
2018-05-16T16:40:29.663Z,20.90
2018-05-16T16:42:57.201Z,20.90
2018-05-16T16:45:27.805Z,20.90
2018-05-16T16:47:55.285Z,20.80
2018-05-16T16:50:22.793Z,20.90
2018-05-16T16:52:50.264Z,21.00
2018-05-16T16:55:19.283Z,21.10
2018-05-16T16:57:47.716Z,21.20
2018-05-16T17:00:15.212Z,21.20
2018-05-16T17:02:42.731Z,21.40
2018-05-16T17:05:11.049Z,21.60
2018-05-16T17:07:39.292Z,21.70
2018-05-16T17:10:06.802Z,21.70
2018-05-16T17:12:34.336Z,21.70
2018-05-16T17:15:02.584Z,21.90
2018-05-16T17:17:30.217Z,21.90
2018-05-16T17:19:57.715Z,21.90
2018-05-16T17:22:25.192Z,21.90
2018-05-16T17:24:53.447Z,21.70
2018-05-16T17:27:21.002Z,21.70
2018-05-16T17:29:48.683Z,21.60
2018-05-16T17:32:16.967Z,21.70
2018-05-16T17:34:45.256Z,21.60
2018-05-16T17:37:12.892Z,21.60
2018-05-16T17:39:40.469Z,21.20
2018-05-16T17:42:13.924Z,20.50
2018-05-16T17:44:42.300Z,19.10
2018-05-16T17:47:09.801Z,19.10
2018-05-16T17:49:38.127Z,17.60
2018-05-16T17:52:05.620Z,17.60
2018-05-16T17:54:33.164Z,17.30
2018-05-16T17:57:01.729Z,17.60
2018-05-16T17:59:29.286Z,17.60
2018-05-16T18:01:57.363Z,17.70
2018-05-16T18:04:24.873Z,17.80
2018-05-16T18:06:53.301Z,17.80
2018-05-16T18:09:20.944Z,17.80
2018-05-16T18:11:48.611Z,17.80
2018-05-16T18:14:27.969Z,17.70
2018-05-16T18:17:07.473Z,17.80
2018-05-16T18:19:34.955Z,17.90
2018-05-16T18:22:02.617Z,18.10
2018-05-16T18:24:30.127Z,18.10
2018-05-16T18:26:57.815Z,17.90
2018-05-16T18:29:25.352Z,17.90
2018-05-16T18:31:53.761Z,17.90
2018-05-16T18:34:21.435Z,17.90
2018-05-16T18:36:48.993Z,17.90
2018-05-16T18:39:16.598Z,17.80
2018-05-16T18:41:44.040Z,17.80
2018-05-16T18:44:12.833Z,17.20
2018-05-16T18:46:40.393Z,17.30
2018-05-16T18:49:08.642Z,17.20
2018-05-16T18:51:36.122Z,17.20
2018-05-16T18:54:03.961Z,16.90
2018-05-16T18:56:31.652Z,16.80
2018-05-16T18:59:00.033Z,17.00
2018-05-16T19:01:28.309Z,16.70
2018-05-16T19:03:56.735Z,16.60
2018-05-16T19:06:24.382Z,16.60
2018-05-16T19:08:51.884Z,16.80
2018-05-16T19:11:19.347Z,16.90
2018-05-16T19:13:47.990Z,16.80
2018-05-16T19:16:15.484Z,16.80
2018-05-16T19:18:42.968Z,16.70
2018-05-16T19:21:11.240Z,16.50
2018-05-16T19:23:39.530Z,16.50
2018-05-16T19:26:07.035Z,16.50
2018-05-16T19:28:34.521Z,16.40
2018-05-16T19:31:02.001Z,16.40
2018-05-16T19:33:30.273Z,16.50
2018-05-16T19:35:58.529Z,16.50
2018-05-16T19:38:26.065Z,16.50
2018-05-16T19:40:54.341Z,16.50
2018-05-16T19:43:21.824Z,16.50
2018-05-16T19:45:50.110Z,16.70
2018-05-16T19:48:18.379Z,16.70
2018-05-16T19:50:45.913Z,16.70
2018-05-16T19:53:13.417Z,16.70
2018-05-16T19:55:40.913Z,16.80
2018-05-16T19:58:08.400Z,16.80
2018-05-16T20:00:35.875Z,16.80
2018-05-16T20:03:09.069Z,16.80
2018-05-16T20:05:37.305Z,16.80
2018-05-16T20:08:04.834Z,16.80
2018-05-16T20:10:32.309Z,16.80
2018-05-16T20:12:59.812Z,16.90
2018-05-16T20:15:28.072Z,16.90
2018-05-16T20:17:55.899Z,16.90
2018-05-16T20:20:23.526Z,16.80
2018-05-16T20:22:51.046Z,16.80
2018-05-16T20:25:18.750Z,16.70
2018-05-16T20:27:46.992Z,16.60
2018-05-16T20:30:14.481Z,16.60
2018-05-16T20:32:42.849Z,16.60
2018-05-16T20:35:11.173Z,16.70
2018-05-16T20:37:38.868Z,16.70
2018-05-16T20:40:07.171Z,16.60
2018-05-16T20:42:35.494Z,16.70
2018-05-16T20:45:03.149Z,16.60
2018-05-16T20:47:30.740Z,16.60
2018-05-16T20:49:58.848Z,16.60
2018-05-16T20:52:26.449Z,16.60
2018-05-16T20:54:54.038Z,16.50
2018-05-16T20:57:21.621Z,16.40
2018-05-16T20:59:49.971Z,16.30
2018-05-16T21:02:17.654Z,16.30
2018-05-16T21:04:46.045Z,16.20
2018-05-16T21:07:14.323Z,16.20
2018-05-16T21:09:42.075Z,16.20
2018-05-16T21:12:11.321Z,16.10
2018-05-16T21:14:38.905Z,16.10
2018-05-16T21:17:06.449Z,16.10
2018-05-16T21:19:33.938Z,16.10
2018-05-16T21:22:01.422Z,16.20
2018-05-16T21:24:28.992Z,16.10
2018-05-16T21:26:56.531Z,16.00
2018-05-16T21:29:24.036Z,15.90
2018-05-16T21:31:51.523Z,15.90
2018-05-16T21:34:19.036Z,15.90
2018-05-16T21:36:46.534Z,15.80
2018-05-16T21:41:48.018Z,15.70
2018-05-16T21:44:16.283Z,15.60
2018-05-16T21:46:43.782Z,15.60
2018-05-16T21:49:11.377Z,15.60
2018-05-16T21:51:39.024Z,15.60
2018-05-16T21:54:06.543Z,15.50
2018-05-16T21:56:34.803Z,15.40
2018-05-16T21:59:02.318Z,15.40
2018-05-16T22:01:29.804Z,15.30
2018-05-16T22:03:57.298Z,15.30
2018-05-16T22:06:25.570Z,15.10
2018-05-16T22:08:53.059Z,15.10
2018-05-16T22:11:20.557Z,15.10
2018-05-16T22:13:48.045Z,15.10
2018-05-16T22:16:16.302Z,15.00
2018-05-16T22:18:44.569Z,15.00
2018-05-16T22:21:12.881Z,14.90
2018-05-16T22:23:40.370Z,14.90
2018-05-16T22:26:08.176Z,14.90
2018-05-16T22:28:36.506Z,14.90
2018-05-16T22:31:09.636Z,14.80
2018-05-16T22:33:42.733Z,14.80
2018-05-16T22:36:16.692Z,14.70
2018-05-16T22:38:49.921Z,14.70
2018-05-16T22:41:23.185Z,14.70
2018-05-16T22:44:08.547Z,14.70
2018-05-16T22:46:36.050Z,14.60
2018-05-16T22:49:04.302Z,14.60
2018-05-16T22:51:31.810Z,14.50
2018-05-16T22:54:00.072Z,14.60
2018-05-16T22:56:28.335Z,14.40
2018-05-16T22:58:55.886Z,14.40
2018-05-16T23:01:23.391Z,14.30
2018-05-16T23:03:51.057Z,14.20
2018-05-16T23:06:18.601Z,14.20
2018-05-16T23:08:46.120Z,14.10
2018-05-16T23:11:13.604Z,14.20
2018-05-16T23:13:41.909Z,14.00
2018-05-16T23:16:09.654Z,14.00
2018-05-16T23:18:37.040Z,14.10
2018-05-16T23:21:04.521Z,14.10
2018-05-16T23:23:32.049Z,14.10
2018-05-16T23:25:59.557Z,14.10
2018-05-16T23:28:27.083Z,14.00
2018-05-16T23:30:54.604Z,13.90
2018-05-16T23:33:22.068Z,14.00
2018-05-16T23:35:49.545Z,13.90
2018-05-16T23:38:17.152Z,13.80
2018-05-16T23:40:44.643Z,13.80
2018-05-16T23:43:12.272Z,13.80
2018-05-16T23:45:39.758Z,13.70
2018-05-16T23:48:07.236Z,13.70
2018-05-16T23:50:34.749Z,13.70
2018-05-16T23:53:03.023Z,13.60
2018-05-16T23:55:30.508Z,13.60
2018-05-16T23:57:57.982Z,13.60
